Eaglesham, United Kingdom
Current Conditions -  °F | °C
As of 4:50 PM on Thursday 30 Oct 2014 (Local Time) from EGPF Reporting Station
Haze Haze  
Wind Chill: 10°   Ceiling: 800
Heat Index: 10°   Visibility: 3mi
Dew Point: 10°   Wind: 2mph
Humidity: 100%   Direction: NA
Pressure: 29.85"   Gusts: NA
Location:  55.74°N, 4.27°W
Report Text: EGPF 301650Z AUTO VRB02KT 5000 BR SCT004/// OVC008/// //////TCU 10/10 Q1011
Loading
Personal Weather Stations






























Interactive Weather Map
Tropical Storm Tracking
New forecast layout! Learn more

10-Day Weather Forecast

Advertisements
Track Severe Weather on mobile